createdAt,value
2023-05-10T00:00:11.363Z,13.83
2023-05-10T00:02:41.530Z,13.82
2023-05-10T00:05:08.460Z,13.81
2023-05-10T00:07:35.027Z,13.79
2023-05-10T00:10:01.409Z,13.79
2023-05-10T00:12:27.829Z,13.78
2023-05-10T00:14:54.269Z,13.76
2023-05-10T00:17:20.997Z,13.75
2023-05-10T00:19:47.422Z,13.73
2023-05-10T00:22:13.868Z,13.71
2023-05-10T00:24:40.339Z,13.69
2023-05-10T00:27:06.772Z,13.67
2023-05-10T00:29:34.597Z,13.68
2023-05-10T00:32:01.085Z,13.67
2023-05-10T00:34:28.072Z,13.66
2023-05-10T00:36:54.618Z,13.67
2023-05-10T00:39:21.183Z,13.67
2023-05-10T00:41:47.594Z,13.66
2023-05-10T00:44:15.050Z,13.66
2023-05-10T00:46:42.823Z,13.66
2023-05-10T00:49:09.265Z,13.67
2023-05-10T00:51:36.168Z,13.67
2023-05-10T00:54:03.497Z,13.66
2023-05-10T00:56:30.718Z,13.64
2023-05-10T00:58:57.641Z,13.63
2023-05-10T01:01:24.301Z,13.63
2023-05-10T01:03:52.155Z,13.63
2023-05-10T01:06:18.550Z,13.61
2023-05-10T01:08:45.541Z,13.60
2023-05-10T01:11:12.057Z,13.57
2023-05-10T01:13:40.835Z,13.56
2023-05-10T01:16:08.137Z,13.55
2023-05-10T01:18:39.105Z,13.55
2023-05-10T01:21:12.152Z,13.52
2023-05-10T01:24:16.057Z,13.52
2023-05-10T01:26:57.561Z,13.52
2023-05-10T01:29:46.468Z,13.52
2023-05-10T01:32:21.516Z,13.51
2023-05-10T01:35:18.065Z,13.48
2023-05-10T01:37:57.843Z,13.47
2023-05-10T01:40:31.414Z,13.47
2023-05-10T01:43:09.273Z,13.47
2023-05-10T01:45:48.212Z,13.47
2023-05-10T01:48:16.057Z,13.47
2023-05-10T01:50:46.436Z,13.48
2023-05-10T01:53:18.053Z,13.47
2023-05-10T01:55:51.785Z,13.49
2023-05-10T01:58:23.719Z,13.49
2023-05-10T02:00:53.318Z,13.51
2023-05-10T02:03:22.994Z,13.52
2023-05-10T02:05:51.562Z,13.52
2023-05-10T02:08:19.945Z,13.51
2023-05-10T02:10:50.031Z,13.48
2023-05-10T02:13:17.878Z,13.45
2023-05-10T02:15:48.920Z,13.46
2023-05-10T02:18:17.754Z,13.45
2023-05-10T02:20:46.645Z,13.41
2023-05-10T02:23:14.317Z,13.41
2023-05-10T02:25:42.376Z,13.38
2023-05-10T02:28:11.416Z,13.36
2023-05-10T02:30:38.602Z,13.38
2023-05-10T02:33:06.732Z,13.36
2023-05-10T02:35:34.426Z,13.35
2023-05-10T02:38:03.018Z,13.34
2023-05-10T02:40:31.068Z,13.32
2023-05-10T02:42:59.586Z,13.33
2023-05-10T02:45:30.064Z,13.34
2023-05-10T02:47:57.741Z,13.30
2023-05-10T02:50:28.232Z,13.26
2023-05-10T02:53:00.661Z,13.23
2023-05-10T02:55:37.381Z,13.19
2023-05-10T02:58:04.621Z,13.20
2023-05-10T03:00:31.685Z,13.18
2023-05-10T03:02:58.350Z,13.18
2023-05-10T03:05:26.665Z,13.19
2023-05-10T03:07:54.041Z,13.19
2023-05-10T03:10:27.692Z,13.16
2023-05-10T03:13:14.165Z,13.17
2023-05-10T03:16:00.125Z,13.16
2023-05-10T03:18:38.246Z,13.16
2023-05-10T03:21:13.195Z,13.16
2023-05-10T03:23:45.621Z,13.16
2023-05-10T03:26:27.700Z,13.16
2023-05-10T03:29:03.043Z,13.16
2023-05-10T03:31:29.608Z,13.15
2023-05-10T03:33:56.020Z,13.16
2023-05-10T03:36:26.054Z,13.19
2023-05-10T03:38:52.518Z,13.19
2023-05-10T03:41:18.959Z,13.19
2023-05-10T03:43:45.407Z,13.19
2023-05-10T03:46:11.844Z,13.19
2023-05-10T03:48:38.428Z,13.16
2023-05-10T03:51:04.888Z,13.14
2023-05-10T03:53:31.371Z,13.10
2023-05-10T03:55:57.965Z,13.11
2023-05-10T03:58:24.545Z,13.08
2023-05-10T04:00:52.168Z,13.04
2023-05-10T04:03:19.179Z,13.01
2023-05-10T04:05:45.693Z,12.95
2023-05-10T04:08:12.269Z,12.90
2023-05-10T04:10:38.747Z,12.89
2023-05-10T04:13:05.222Z,12.85
2023-05-10T04:15:31.725Z,12.85
2023-05-10T04:17:58.196Z,12.87
2023-05-10T04:20:24.647Z,12.91
2023-05-10T04:22:51.050Z,12.91
2023-05-10T04:25:17.926Z,12.94
2023-05-10T04:27:44.357Z,12.94
2023-05-10T04:30:11.617Z,12.94
2023-05-10T04:32:38.203Z,12.95
2023-05-10T04:35:05.677Z,12.97
2023-05-10T04:37:32.180Z,12.98
2023-05-10T04:39:58.658Z,12.99
2023-05-10T04:42:25.055Z,12.99
2023-05-10T04:44:52.757Z,13.01
2023-05-10T04:47:19.326Z,12.99
2023-05-10T04:49:46.184Z,12.99
2023-05-10T04:52:12.592Z,13.00
2023-05-10T04:54:38.988Z,13.01
2023-05-10T04:57:05.347Z,13.03
2023-05-10T04:59:31.750Z,13.03
2023-05-10T05:01:58.426Z,13.04
2023-05-10T05:04:25.069Z,13.02
2023-05-10T05:06:53.786Z,13.02
2023-05-10T05:09:20.738Z,13.01
2023-05-10T05:11:47.145Z,13.04
2023-05-10T05:14:13.608Z,13.05
2023-05-10T05:16:40.101Z,13.06
2023-05-10T05:19:06.696Z,13.05
2023-05-10T05:21:33.504Z,13.04
2023-05-10T05:23:59.924Z,13.06
2023-05-10T05:26:27.342Z,13.09
2023-05-10T05:28:55.489Z,13.10
2023-05-10T05:31:22.316Z,13.11
2023-05-10T05:33:48.801Z,13.11
2023-05-10T05:36:15.217Z,13.18
2023-05-10T05:38:41.775Z,13.17
2023-05-10T05:41:08.399Z,13.16
2023-05-10T05:43:38.626Z,13.14
2023-05-10T05:46:05.466Z,13.11
2023-05-10T05:48:32.182Z,13.13
2023-05-10T05:50:58.765Z,13.14
2023-05-10T05:53:25.311Z,13.16
2023-05-10T05:55:56.121Z,13.19
2023-05-10T05:58:23.705Z,13.20
2023-05-10T06:00:50.803Z,13.23
2023-05-10T06:03:17.376Z,13.27
2023-05-10T06:05:44.220Z,13.30
2023-05-10T06:08:11.171Z,13.31
2023-05-10T06:10:37.856Z,13.33
2023-05-10T06:13:04.515Z,13.33
2023-05-10T06:15:31.001Z,13.30
2023-05-10T06:17:57.495Z,13.29
2023-05-10T06:20:23.928Z,13.29
2023-05-10T06:22:50.442Z,13.27
2023-05-10T06:25:19.189Z,13.24
2023-05-10T06:27:48.945Z,13.25
2023-05-10T06:30:17.562Z,13.24
2023-05-10T06:32:45.084Z,13.26
2023-05-10T06:35:11.653Z,13.26
2023-05-10T06:37:38.212Z,13.20
2023-05-10T06:40:05.308Z,13.17
2023-05-10T06:42:31.761Z,13.17
2023-05-10T06:44:58.128Z,13.17
2023-05-10T06:47:24.527Z,13.18
2023-05-10T06:49:50.888Z,13.19
2023-05-10T06:52:17.384Z,13.18
2023-05-10T06:54:43.812Z,13.20
2023-05-10T06:57:23.355Z,13.22
2023-05-10T06:59:59.540Z,13.23
2023-05-10T07:02:25.999Z,13.24
2023-05-10T07:04:53.087Z,13.24
2023-05-10T07:07:19.958Z,13.25
2023-05-10T07:09:46.832Z,13.24
2023-05-10T07:12:15.392Z,13.28
2023-05-10T07:14:43.005Z,13.34
2023-05-10T07:17:09.749Z,13.38
2023-05-10T07:19:36.866Z,13.39
2023-05-10T07:22:03.329Z,13.43
2023-05-10T07:24:29.804Z,13.47
2023-05-10T07:26:56.201Z,13.50
2023-05-10T07:29:22.626Z,13.53
2023-05-10T07:31:49.096Z,13.56
2023-05-10T07:34:15.543Z,13.57
2023-05-10T07:36:41.952Z,13.59
2023-05-10T07:39:08.468Z,13.58
2023-05-10T07:41:35.939Z,13.59
2023-05-10T07:44:02.587Z,13.63
2023-05-10T07:46:29.576Z,13.66
2023-05-10T07:48:56.415Z,13.67
2023-05-10T07:51:22.944Z,13.69
2023-05-10T07:53:49.422Z,13.67
2023-05-10T07:56:30.446Z,13.63
2023-05-10T07:58:57.344Z,13.57
2023-05-10T08:01:23.832Z,13.56
2023-05-10T08:03:51.590Z,13.61
2023-05-10T08:06:19.046Z,13.66
2023-05-10T08:08:50.245Z,13.70
2023-05-10T08:11:21.497Z,13.75
2023-05-10T08:13:50.086Z,13.77
2023-05-10T08:16:17.669Z,13.77
2023-05-10T08:18:45.839Z,13.76
2023-05-10T08:21:12.341Z,13.79
2023-05-10T08:23:38.792Z,13.81
2023-05-10T08:26:05.250Z,13.93
2023-05-10T08:28:31.632Z,14.04
2023-05-10T08:30:58.040Z,14.12
2023-05-10T08:33:24.451Z,14.18
2023-05-10T08:35:51.082Z,14.19
2023-05-10T08:38:17.490Z,14.20
2023-05-10T08:40:44.908Z,14.18
2023-05-10T08:43:13.262Z,14.23
2023-05-10T08:45:41.955Z,14.35
2023-05-10T08:48:10.228Z,14.41
2023-05-10T08:50:38.762Z,14.37
2023-05-10T08:53:07.671Z,14.30
2023-05-10T08:55:34.686Z,14.28
2023-05-10T08:58:01.288Z,14.28
2023-05-10T09:00:29.451Z,14.30
2023-05-10T09:02:56.271Z,14.33
2023-05-10T09:05:22.749Z,14.32
2023-05-10T09:07:49.200Z,14.35
2023-05-10T09:10:16.711Z,14.37
2023-05-10T09:12:44.994Z,14.41
2023-05-10T09:15:15.974Z,14.45
2023-05-10T09:17:44.827Z,14.43
2023-05-10T09:20:11.356Z,14.46
2023-05-10T09:22:38.632Z,14.57
2023-05-10T09:25:16.469Z,14.66
2023-05-10T09:27:46.331Z,14.79
2023-05-10T09:30:27.356Z,14.91
2023-05-10T09:32:55.213Z,14.93
2023-05-10T09:35:26.497Z,14.93
2023-05-10T09:37:55.956Z,14.97
2023-05-10T09:40:24.432Z,14.94
2023-05-10T09:42:59.468Z,14.96
2023-05-10T09:45:28.612Z,14.97
2023-05-10T09:47:55.541Z,14.93
2023-05-10T09:50:22.634Z,14.92
2023-05-10T09:52:52.167Z,14.94
2023-05-10T09:55:23.449Z,14.93
2023-05-10T09:57:59.042Z,14.90
2023-05-10T10:00:25.574Z,14.83
2023-05-10T10:02:59.702Z,14.81
2023-05-10T10:05:30.665Z,14.81
2023-05-10T10:07:59.134Z,14.78
2023-05-10T10:10:27.526Z,14.78
2023-05-10T10:12:56.261Z,14.78
2023-05-10T10:15:24.020Z,14.77
2023-05-10T10:17:51.812Z,14.74
2023-05-10T10:20:20.735Z,14.79
2023-05-10T10:22:47.696Z,14.84
2023-05-10T10:25:16.660Z,14.89
2023-05-10T10:27:49.378Z,14.94
2023-05-10T10:30:32.521Z,15.03
2023-05-10T10:33:24.387Z,15.09
2023-05-10T10:35:56.392Z,15.08
2023-05-10T10:38:23.727Z,15.08
2023-05-10T10:41:03.197Z,15.08
2023-05-10T10:43:31.181Z,15.06
2023-05-10T10:46:18.178Z,15.03
2023-05-10T10:48:49.401Z,15.04
2023-05-10T10:51:15.885Z,15.01
2023-05-10T10:53:42.284Z,15.01
2023-05-10T10:56:10.890Z,15.03
2023-05-10T10:58:39.261Z,15.06
2023-05-10T11:01:17.269Z,15.11
2023-05-10T11:04:16.232Z,15.14
2023-05-10T11:06:43.394Z,15.17
2023-05-10T11:09:12.344Z,15.20
2023-05-10T11:11:59.216Z,15.13
2023-05-10T11:14:26.337Z,15.12
2023-05-10T11:16:52.998Z,15.09
2023-05-10T11:19:20.358Z,15.09
2023-05-10T11:21:50.829Z,15.09
2023-05-10T11:24:23.993Z,15.12
2023-05-10T11:26:52.094Z,15.14
2023-05-10T11:29:18.613Z,15.15
2023-05-10T11:31:47.458Z,15.17
2023-05-10T11:34:34.648Z,15.19
2023-05-10T11:37:01.856Z,15.20
2023-05-10T11:39:30.055Z,15.23
2023-05-10T11:41:57.265Z,15.25
2023-05-10T11:44:24.311Z,15.27
2023-05-10T11:46:50.887Z,15.27
2023-05-10T11:49:17.594Z,15.28
2023-05-10T11:51:44.530Z,15.29
2023-05-10T11:54:12.176Z,15.30
2023-05-10T11:56:40.241Z,15.34
2023-05-10T11:59:07.408Z,15.36
2023-05-10T12:01:34.461Z,15.38
2023-05-10T12:04:01.731Z,15.42
2023-05-10T12:06:30.444Z,15.42
2023-05-10T12:08:56.932Z,15.43
2023-05-10T12:11:26.981Z,15.41
2023-05-10T12:13:55.752Z,15.39
2023-05-10T12:16:24.601Z,15.34
2023-05-10T12:18:52.492Z,15.29
2023-05-10T12:21:20.842Z,15.27
2023-05-10T12:23:49.493Z,15.29
2023-05-10T12:26:16.088Z,15.31
2023-05-10T12:28:42.567Z,15.33
2023-05-10T12:31:09.245Z,15.39
2023-05-10T12:33:39.800Z,15.46
2023-05-10T12:36:07.642Z,15.47
2023-05-10T12:38:38.853Z,15.53
2023-05-10T12:41:14.024Z,15.61
2023-05-10T12:43:40.959Z,15.71
2023-05-10T12:46:11.643Z,15.82
2023-05-10T12:48:39.986Z,15.87
2023-05-10T12:51:10.158Z,15.93
2023-05-10T12:53:37.604Z,15.98
2023-05-10T12:56:04.158Z,15.99
2023-05-10T13:01:00.424Z,16.00
2023-05-10T13:03:26.845Z,16.02
2023-05-10T13:05:53.224Z,16.09
2023-05-10T13:08:19.584Z,16.18
2023-05-10T13:10:46.124Z,16.22
2023-05-10T13:13:12.509Z,16.25
2023-05-10T13:15:39.014Z,16.28
2023-05-10T13:18:05.436Z,16.34
2023-05-10T13:20:31.911Z,16.34
2023-05-10T13:22:58.360Z,16.34
2023-05-10T13:25:24.898Z,16.37
2023-05-10T13:27:51.357Z,16.41
2023-05-10T13:30:18.122Z,16.41
2023-05-10T13:32:44.820Z,16.45
2023-05-10T13:35:11.287Z,16.46
2023-05-10T13:37:38.208Z,16.46
2023-05-10T13:40:05.573Z,16.44
2023-05-10T13:42:34.275Z,16.44
2023-05-10T13:45:02.528Z,16.38
2023-05-10T13:47:29.109Z,16.32
2023-05-10T13:49:55.621Z,16.29
2023-05-10T13:52:25.135Z,16.24
2023-05-10T13:54:55.721Z,16.17
2023-05-10T13:57:22.689Z,16.11
2023-05-10T13:59:49.151Z,16.10
2023-05-10T14:02:15.768Z,16.06
2023-05-10T14:04:42.314Z,16.07
2023-05-10T14:07:08.892Z,16.10
2023-05-10T14:09:35.277Z,16.15
2023-05-10T14:12:01.719Z,16.18
2023-05-10T14:14:29.994Z,16.22
2023-05-10T14:16:56.825Z,16.22
2023-05-10T14:19:23.234Z,16.20
2023-05-10T14:21:49.800Z,16.23
2023-05-10T14:24:16.388Z,16.24
2023-05-10T14:26:42.752Z,16.26
2023-05-10T14:29:10.778Z,16.29
2023-05-10T14:31:39.967Z,16.31
2023-05-10T14:34:06.542Z,16.32
2023-05-10T14:36:33.253Z,16.31
2023-05-10T14:38:59.681Z,16.30
2023-05-10T14:41:26.102Z,16.22
2023-05-10T14:43:52.512Z,16.16
2023-05-10T14:46:19.119Z,16.15
2023-05-10T14:48:45.544Z,16.17
2023-05-10T14:51:12.059Z,16.18
2023-05-10T14:53:38.486Z,16.12
2023-05-10T14:56:05.100Z,16.16
2023-05-10T14:58:33.967Z,16.20
2023-05-10T15:01:01.147Z,16.24
2023-05-10T15:03:28.316Z,16.22
2023-05-10T15:05:57.022Z,16.23
2023-05-10T15:08:24.802Z,16.23
2023-05-10T15:10:52.197Z,16.37
2023-05-10T15:13:18.767Z,16.35
2023-05-10T15:15:45.290Z,16.32
2023-05-10T15:18:11.838Z,16.39
2023-05-10T15:20:38.277Z,16.41
2023-05-10T15:23:04.709Z,16.42
2023-05-10T15:25:31.154Z,16.44
2023-05-10T15:27:57.581Z,16.50
2023-05-10T15:30:24.007Z,16.60
2023-05-10T15:32:50.556Z,16.62
2023-05-10T15:35:18.170Z,16.56
2023-05-10T15:37:44.830Z,16.53
2023-05-10T15:40:11.557Z,16.54
2023-05-10T15:42:37.965Z,16.52
2023-05-10T15:45:04.944Z,16.38
2023-05-10T15:47:31.649Z,16.25
2023-05-10T15:49:58.264Z,16.24
2023-05-10T15:52:24.629Z,16.26
2023-05-10T15:54:51.245Z,16.20
2023-05-10T15:57:17.667Z,16.20
2023-05-10T15:59:44.124Z,16.26
2023-05-10T16:02:13.729Z,16.31
2023-05-10T16:04:40.180Z,16.28
2023-05-10T16:07:06.541Z,16.25
2023-05-10T16:09:33.000Z,16.26
2023-05-10T16:11:59.397Z,16.21
2023-05-10T16:14:26.047Z,16.17
2023-05-10T16:16:52.551Z,16.19
2023-05-10T16:19:19.139Z,16.20
2023-05-10T16:21:45.623Z,16.14
2023-05-10T16:24:12.148Z,16.16
2023-05-10T16:26:40.911Z,16.15
2023-05-10T16:29:10.569Z,16.19
2023-05-10T16:31:37.009Z,16.21
2023-05-10T16:34:03.489Z,16.17
2023-05-10T16:36:30.295Z,16.07
2023-05-10T16:38:56.734Z,16.04
2023-05-10T16:41:23.231Z,16.04
2023-05-10T16:43:50.080Z,16.06
2023-05-10T16:46:16.639Z,16.04
2023-05-10T16:48:43.107Z,16.03
2023-05-10T16:51:09.751Z,16.03
2023-05-10T16:53:36.309Z,16.00
2023-05-10T16:56:03.383Z,16.05
2023-05-10T16:58:29.834Z,16.06
2023-05-10T17:00:56.299Z,16.06
2023-05-10T17:03:23.182Z,16.08
2023-05-10T17:05:52.080Z,16.10
2023-05-10T17:08:18.490Z,16.13
2023-05-10T17:10:45.122Z,16.13
2023-05-10T17:13:11.671Z,16.12
2023-05-10T17:15:39.236Z,16.08
2023-05-10T17:18:07.000Z,16.08
2023-05-10T17:20:34.297Z,16.05
2023-05-10T17:23:02.541Z,15.99
2023-05-10T17:25:29.533Z,15.98
2023-05-10T17:27:55.952Z,15.97
2023-05-10T17:30:26.268Z,15.97
2023-05-10T17:32:54.145Z,15.91
2023-05-10T17:35:21.357Z,15.86
2023-05-10T17:37:47.888Z,15.79
2023-05-10T17:40:14.354Z,15.77
2023-05-10T17:42:40.885Z,15.76
2023-05-10T17:45:07.894Z,15.77
2023-05-10T17:47:34.338Z,15.74
2023-05-10T17:50:00.930Z,15.67
2023-05-10T17:52:29.345Z,15.65
2023-05-10T17:54:56.689Z,15.59
2023-05-10T17:57:23.748Z,15.53
2023-05-10T17:59:50.455Z,15.51
2023-05-10T18:02:16.993Z,15.47
2023-05-10T18:04:43.631Z,15.41
2023-05-10T18:07:10.181Z,15.42
2023-05-10T18:09:36.674Z,15.46
2023-05-10T18:12:03.341Z,15.48
2023-05-10T18:14:39.871Z,15.50
2023-05-10T18:17:08.330Z,15.52
2023-05-10T18:19:34.904Z,15.53
2023-05-10T18:22:01.380Z,15.52
2023-05-10T18:24:38.197Z,15.52
2023-05-10T18:27:08.007Z,15.50
2023-05-10T18:29:34.511Z,15.50
2023-05-10T18:32:00.965Z,15.50
2023-05-10T18:34:27.448Z,15.50
2023-05-10T18:36:53.856Z,15.52
2023-05-10T18:39:20.608Z,15.49
2023-05-10T18:41:47.148Z,15.47
2023-05-10T18:44:14.503Z,15.45
2023-05-10T18:46:42.317Z,15.44
2023-05-10T18:49:09.190Z,15.42
2023-05-10T18:51:35.707Z,15.41
2023-05-10T18:54:02.390Z,15.42
2023-05-10T18:56:28.858Z,15.42
2023-05-10T18:58:55.361Z,15.40
2023-05-10T19:01:21.878Z,15.40
2023-05-10T19:03:48.312Z,15.40
2023-05-10T19:06:14.842Z,15.39
2023-05-10T19:08:41.322Z,15.37
2023-05-10T19:11:07.821Z,15.34
2023-05-10T19:13:34.362Z,15.42
2023-05-10T19:16:06.168Z,15.49
2023-05-10T19:18:33.738Z,15.49
2023-05-10T19:21:04.308Z,15.45
2023-05-10T19:23:34.835Z,15.43
2023-05-10T19:26:01.835Z,15.40
2023-05-10T19:28:28.510Z,15.39
2023-05-10T19:30:55.000Z,15.36
2023-05-10T19:33:21.544Z,15.33
2023-05-10T19:35:52.046Z,15.32
2023-05-10T19:38:22.167Z,15.31
2023-05-10T19:40:50.222Z,15.28
2023-05-10T19:43:17.139Z,15.28
2023-05-10T19:45:43.694Z,15.27
2023-05-10T19:48:11.086Z,15.29
2023-05-10T19:50:38.407Z,15.27
2023-05-10T19:53:04.914Z,15.26
2023-05-10T19:55:32.230Z,15.25
2023-05-10T19:58:00.558Z,15.23
2023-05-10T20:00:30.268Z,15.23
2023-05-10T20:02:56.899Z,15.21
2023-05-10T20:05:23.929Z,15.20
2023-05-10T20:07:50.939Z,15.18
2023-05-10T20:10:17.958Z,15.16
2023-05-10T20:12:52.421Z,15.15
2023-05-10T20:15:23.547Z,15.13
2023-05-10T20:17:51.895Z,15.09
2023-05-10T20:20:20.070Z,15.06
2023-05-10T20:22:50.287Z,15.05
2023-05-10T20:25:18.309Z,15.03
2023-05-10T20:27:45.009Z,15.03
2023-05-10T20:30:11.864Z,15.03
2023-05-10T20:32:39.025Z,15.02
2023-05-10T20:35:06.133Z,14.99
2023-05-10T20:37:32.608Z,14.95
2023-05-10T20:39:59.122Z,14.96
2023-05-10T20:42:25.546Z,14.97
2023-05-10T20:44:51.949Z,14.95
2023-05-10T20:47:18.519Z,14.92
2023-05-10T20:49:44.990Z,14.92
2023-05-10T20:52:11.669Z,14.93
2023-05-10T20:54:38.047Z,14.91
2023-05-10T20:57:04.473Z,14.90
2023-05-10T20:59:30.911Z,14.89
2023-05-10T21:01:57.710Z,14.87
2023-05-10T21:04:25.582Z,14.87
2023-05-10T21:06:52.920Z,14.88
2023-05-10T21:09:19.413Z,14.89
2023-05-10T21:11:45.929Z,14.89
2023-05-10T21:14:12.425Z,14.87
2023-05-10T21:16:39.009Z,14.88
2023-05-10T21:19:07.157Z,14.85
2023-05-10T21:21:33.890Z,14.83
2023-05-10T21:24:00.522Z,14.79
2023-05-10T21:26:26.956Z,14.79
2023-05-10T21:28:53.371Z,14.78
2023-05-10T21:31:20.201Z,14.76
2023-05-10T21:33:46.725Z,14.77
2023-05-10T21:36:13.753Z,14.76
2023-05-10T21:38:40.947Z,14.75
2023-05-10T21:41:08.036Z,14.76
2023-05-10T21:43:34.686Z,14.75
2023-05-10T21:46:01.557Z,14.74
2023-05-10T21:48:28.150Z,14.73
2023-05-10T21:50:54.664Z,14.73
2023-05-10T21:53:22.234Z,14.73
2023-05-10T21:55:48.829Z,14.72
2023-05-10T21:58:15.275Z,14.72
2023-05-10T22:00:41.675Z,14.73
2023-05-10T22:03:08.232Z,14.72
2023-05-10T22:05:34.952Z,14.73
2023-05-10T22:08:14.705Z,14.63
2023-05-10T22:10:41.159Z,14.74
2023-05-10T22:13:07.688Z,14.73
2023-05-10T22:15:36.336Z,14.72
2023-05-10T22:18:03.108Z,14.74
2023-05-10T22:20:29.662Z,14.72
2023-05-10T22:22:56.123Z,14.63
2023-05-10T22:25:22.690Z,14.53
2023-05-10T22:27:49.179Z,14.42
2023-05-10T22:30:15.966Z,14.39
2023-05-10T22:32:42.638Z,14.39
2023-05-10T22:35:09.254Z,14.41
2023-05-10T22:37:35.707Z,14.42
2023-05-10T22:40:02.305Z,14.42
2023-05-10T22:42:29.824Z,14.40
2023-05-10T22:44:56.500Z,14.33
2023-05-10T22:47:22.941Z,14.28
2023-05-10T22:49:49.346Z,14.30
2023-05-10T22:52:15.729Z,14.24
2023-05-10T22:54:42.273Z,14.25
2023-05-10T22:57:08.717Z,14.23
2023-05-10T22:59:35.175Z,14.25
2023-05-10T23:02:01.697Z,14.27
2023-05-10T23:04:28.094Z,14.28
2023-05-10T23:06:54.550Z,14.30
2023-05-10T23:09:21.323Z,14.29
2023-05-10T23:11:47.738Z,14.24
2023-05-10T23:14:14.131Z,14.24
2023-05-10T23:16:40.764Z,14.19
2023-05-10T23:19:07.482Z,14.17
2023-05-10T23:21:34.401Z,14.15
2023-05-10T23:24:00.909Z,14.17
2023-05-10T23:26:27.460Z,14.14
2023-05-10T23:28:53.942Z,14.14
2023-05-10T23:31:20.393Z,14.16
2023-05-10T23:33:46.809Z,14.19
2023-05-10T23:36:13.210Z,14.21
2023-05-10T23:38:39.653Z,14.21
2023-05-10T23:41:06.193Z,14.24
2023-05-10T23:43:32.611Z,14.25
2023-05-10T23:45:59.482Z,14.26
2023-05-10T23:48:26.058Z,14.26
2023-05-10T23:50:52.594Z,14.25
2023-05-10T23:53:19.218Z,14.21
2023-05-10T23:55:45.871Z,14.19
2023-05-10T23:58:12.557Z,14.10
